sensor_id;sensor_type;location;lat;lon;timestamp;pressure;altitude;pressure_sealevel;temperature;humidity
54369;BME280;40266;52.434;17.056;2022-10-23T00:02:31;100700.70;;;12.44;100.00
54369;BME280;40266;52.434;17.056;2022-10-23T00:05:14;100698.34;;;12.47;100.00
54369;BME280;40266;52.434;17.056;2022-10-23T00:07:58;100700.92;;;12.49;100.00
54369;BME280;40266;52.434;17.056;2022-10-23T00:10:42;100703.16;;;12.51;100.00
54369;BME280;40266;52.434;17.056;2022-10-23T00:13:25;100703.98;;;12.54;100.00
54369;BME280;40266;52.434;17.056;2022-10-23T00:16:08;100706.19;;;12.56;100.00
54369;BME280;40266;52.434;17.056;2022-10-23T00:18:51;100698.63;;;12.57;100.00
54369;BME280;40266;52.434;17.056;2022-10-23T00:21:34;100691.71;;;12.60;100.00
54369;BME280;40266;52.434;17.056;2022-10-23T00:24:18;100698.35;;;12.62;100.00
54369;BME280;40266;52.434;17.056;2022-10-23T00:27:00;100698.81;;;12.64;100.00
54369;BME280;40266;52.434;17.056;2022-10-23T00:29:44;100698.77;;;12.65;100.00
54369;BME280;40266;52.434;17.056;2022-10-23T00:32:27;100702.91;;;12.67;100.00
54369;BME280;40266;52.434;17.056;2022-10-23T00:35:10;100697.24;;;12.70;100.00
54369;BME280;40266;52.434;17.056;2022-10-23T00:37:53;100691.63;;;12.71;100.00
54369;BME280;40266;52.434;17.056;2022-10-23T00:40:36;100684.04;;;12.73;100.00
54369;BME280;40266;52.434;17.056;2022-10-23T00:43:23;100680.80;;;12.75;100.00
54369;BME280;40266;52.434;17.056;2022-10-23T00:46:06;100679.89;;;12.77;100.00
54369;BME280;40266;52.434;17.056;2022-10-23T00:48:49;100674.77;;;12.79;100.00
54369;BME280;40266;52.434;17.056;2022-10-23T00:51:42;100674.37;;;12.80;100.00
54369;BME280;40266;52.434;17.056;2022-10-23T00:54:28;100678.90;;;12.81;100.00
54369;BME280;40266;52.434;17.056;2022-10-23T00:57:14;100674.12;;;12.83;100.00
54369;BME280;40266;52.434;17.056;2022-10-23T00:59:57;100673.95;;;12.83;100.00
54369;BME280;40266;52.434;17.056;2022-10-23T01:02:41;100670.75;;;12.85;100.00
54369;BME280;40266;52.434;17.056;2022-10-23T01:05:34;100668.11;;;12.85;100.00
54369;BME280;40266;52.434;17.056;2022-10-23T01:11:46;100679.81;;;12.86;100.00
54369;BME280;40266;52.434;17.056;2022-10-23T01:14:39;100689.08;;;12.87;100.00
54369;BME280;40266;52.434;17.056;2022-10-23T01:17:40;100689.42;;;12.87;100.00
54369;BME280;40266;52.434;17.056;2022-10-23T01:20:38;100692.75;;;12.88;100.00
54369;BME280;40266;52.434;17.056;2022-10-23T01:23:46;100684.16;;;12.88;100.00
54369;BME280;40266;52.434;17.056;2022-10-23T01:29:34;100689.79;;;12.87;100.00
54369;BME280;40266;52.434;17.056;2022-10-23T01:35:21;100685.30;;;12.84;100.00
54369;BME280;40266;52.434;17.056;2022-10-23T01:38:24;100683.90;;;12.84;100.00
54369;BME280;40266;52.434;17.056;2022-10-23T01:41:17;100680.92;;;12.84;100.00
54369;BME280;40266;52.434;17.056;2022-10-23T01:44:23;100678.83;;;12.84;100.00
54369;BME280;40266;52.434;17.056;2022-10-23T01:47:10;100679.91;;;12.83;100.00
54369;BME280;40266;52.434;17.056;2022-10-23T01:50:10;100677.62;;;12.83;100.00
54369;BME280;40266;52.434;17.056;2022-10-23T01:52:56;100673.96;;;12.82;100.00
54369;BME280;40266;52.434;17.056;2022-10-23T01:55:40;100673.65;;;12.81;100.00
54369;BME280;40266;52.434;17.056;2022-10-23T01:58:30;100675.77;;;12.81;100.00
54369;BME280;40266;52.434;17.056;2022-10-23T02:01:15;100680.52;;;12.79;100.00
54369;BME280;40266;52.434;17.056;2022-10-23T02:04:04;100689.88;;;12.77;100.00
54369;BME280;40266;52.434;17.056;2022-10-23T02:06:50;100693.98;;;12.75;100.00
54369;BME280;40266;52.434;17.056;2022-10-23T02:09:33;100702.09;;;12.73;100.00
54369;BME280;40266;52.434;17.056;2022-10-23T02:12:28;100700.58;;;12.70;100.00
54369;BME280;40266;52.434;17.056;2022-10-23T02:18:07;100701.43;;;12.64;100.00
54369;BME280;40266;52.434;17.056;2022-10-23T02:20:58;100697.08;;;12.63;100.00
54369;BME280;40266;52.434;17.056;2022-10-23T02:23:55;100702.20;;;12.61;100.00
54369;BME280;40266;52.434;17.056;2022-10-23T02:26:48;100703.48;;;12.59;100.00
54369;BME280;40266;52.434;17.056;2022-10-23T02:29:36;100708.45;;;12.57;100.00
54369;BME280;40266;52.434;17.056;2022-10-23T02:32:23;100711.17;;;12.53;100.00
54369;BME280;40266;52.434;17.056;2022-10-23T02:35:08;100715.44;;;12.50;100.00
54369;BME280;40266;52.434;17.056;2022-10-23T02:37:53;100712.52;;;12.48;100.00
54369;BME280;40266;52.434;17.056;2022-10-23T02:40:40;100722.72;;;12.46;100.00
54369;BME280;40266;52.434;17.056;2022-10-23T02:43:32;100728.54;;;12.45;100.00
54369;BME280;40266;52.434;17.056;2022-10-23T02:46:34;100730.70;;;12.43;100.00
54369;BME280;40266;52.434;17.056;2022-10-23T02:58:36;100721.75;;;12.36;100.00
54369;BME280;40266;52.434;17.056;2022-10-23T03:01:37;100722.48;;;12.34;100.00
54369;BME280;40266;52.434;17.056;2022-10-23T03:04:27;100726.27;;;12.30;100.00
54369;BME280;40266;52.434;17.056;2022-10-23T03:07:14;100727.52;;;12.28;100.00
54369;BME280;40266;52.434;17.056;2022-10-23T03:09:59;100726.89;;;12.26;100.00
54369;BME280;40266;52.434;17.056;2022-10-23T03:12:42;100730.61;;;12.24;100.00
54369;BME280;40266;52.434;17.056;2022-10-23T03:15:26;100729.80;;;12.21;100.00
54369;BME280;40266;52.434;17.056;2022-10-23T03:18:09;100726.52;;;12.19;100.00
54369;BME280;40266;52.434;17.056;2022-10-23T03:20:52;100726.33;;;12.19;100.00
54369;BME280;40266;52.434;17.056;2022-10-23T03:23:36;100722.72;;;12.17;100.00
54369;BME280;40266;52.434;17.056;2022-10-23T03:26:19;100721.03;;;12.14;100.00
54369;BME280;40266;52.434;17.056;2022-10-23T03:29:03;100723.87;;;12.12;100.00
54369;BME280;40266;52.434;17.056;2022-10-23T03:31:46;100719.20;;;12.10;100.00
54369;BME280;40266;52.434;17.056;2022-10-23T03:34:30;100719.25;;;12.08;100.00
54369;BME280;40266;52.434;17.056;2022-10-23T03:37:13;100712.28;;;12.06;100.00
54369;BME280;40266;52.434;17.056;2022-10-23T03:39:55;100707.20;;;12.06;100.00
54369;BME280;40266;52.434;17.056;2022-10-23T03:42:38;100706.15;;;12.07;100.00
54369;BME280;40266;52.434;17.056;2022-10-23T03:45:22;100726.64;;;12.06;100.00
54369;BME280;40266;52.434;17.056;2022-10-23T03:48:06;100725.13;;;12.03;100.00
54369;BME280;40266;52.434;17.056;2022-10-23T03:50:50;100734.77;;;12.02;100.00
54369;BME280;40266;52.434;17.056;2022-10-23T03:53:33;100748.27;;;12.01;100.00
54369;BME280;40266;52.434;17.056;2022-10-23T03:56:17;100749.70;;;12.00;100.00
54369;BME280;40266;52.434;17.056;2022-10-23T03:59:00;100748.70;;;11.98;100.00
54369;BME280;40266;52.434;17.056;2022-10-23T04:01:43;100750.31;;;11.97;100.00
54369;BME280;40266;52.434;17.056;2022-10-23T04:04:26;100749.98;;;11.95;100.00
54369;BME280;40266;52.434;17.056;2022-10-23T04:07:09;100746.70;;;11.94;100.00
54369;BME280;40266;52.434;17.056;2022-10-23T04:09:52;100742.87;;;11.93;100.00
54369;BME280;40266;52.434;17.056;2022-10-23T04:12:35;100746.40;;;11.91;100.00
54369;BME280;40266;52.434;17.056;2022-10-23T04:15:18;100749.05;;;11.90;100.00
54369;BME280;40266;52.434;17.056;2022-10-23T04:18:01;100744.04;;;11.87;100.00
54369;BME280;40266;52.434;17.056;2022-10-23T04:20:48;100747.55;;;11.84;100.00
54369;BME280;40266;52.434;17.056;2022-10-23T04:23:32;100746.01;;;11.83;100.00
54369;BME280;40266;52.434;17.056;2022-10-23T04:26:15;100745.17;;;11.81;100.00
54369;BME280;40266;52.434;17.056;2022-10-23T04:28:57;100747.46;;;11.81;100.00
54369;BME280;40266;52.434;17.056;2022-10-23T04:31:43;100747.50;;;11.79;100.00
54369;BME280;40266;52.434;17.056;2022-10-23T04:34:25;100748.03;;;11.79;100.00
54369;BME280;40266;52.434;17.056;2022-10-23T04:37:09;100750.98;;;11.80;100.00
54369;BME280;40266;52.434;17.056;2022-10-23T04:39:53;100750.82;;;11.80;100.00
54369;BME280;40266;52.434;17.056;2022-10-23T04:42:36;100745.92;;;11.80;100.00
54369;BME280;40266;52.434;17.056;2022-10-23T04:45:18;100743.10;;;11.80;100.00
54369;BME280;40266;52.434;17.056;2022-10-23T04:48:01;100747.49;;;11.80;100.00
54369;BME280;40266;52.434;17.056;2022-10-23T04:50:58;100748.20;;;11.80;100.00
54369;BME280;40266;52.434;17.056;2022-10-23T04:53:50;100741.41;;;11.77;100.00
54369;BME280;40266;52.434;17.056;2022-10-23T04:56:56;100746.14;;;11.77;100.00
54369;BME280;40266;52.434;17.056;2022-10-23T04:59:39;100745.42;;;11.77;100.00
54369;BME280;40266;52.434;17.056;2022-10-23T05:02:22;100752.45;;;11.77;100.00
54369;BME280;40266;52.434;17.056;2022-10-23T05:05:07;100759.98;;;11.76;100.00
54369;BME280;40266;52.434;17.056;2022-10-23T05:07:50;100764.20;;;11.76;100.00
54369;BME280;40266;52.434;17.056;2022-10-23T05:10:46;100764.21;;;11.75;100.00
54369;BME280;40266;52.434;17.056;2022-10-23T05:13:30;100764.91;;;11.74;100.00
54369;BME280;40266;52.434;17.056;2022-10-23T05:16:35;100768.09;;;11.74;100.00
54369;BME280;40266;52.434;17.056;2022-10-23T05:19:22;100765.64;;;11.74;100.00
54369;BME280;40266;52.434;17.056;2022-10-23T05:22:06;100767.56;;;11.74;100.00
54369;BME280;40266;52.434;17.056;2022-10-23T05:25:07;100764.61;;;11.73;100.00
54369;BME280;40266;52.434;17.056;2022-10-23T05:27:51;100767.58;;;11.73;100.00
54369;BME280;40266;52.434;17.056;2022-10-23T05:30:34;100763.02;;;11.73;100.00
54369;BME280;40266;52.434;17.056;2022-10-23T05:33:17;100767.91;;;11.74;100.00
54369;BME280;40266;52.434;17.056;2022-10-23T05:36:01;100762.68;;;11.73;100.00
54369;BME280;40266;52.434;17.056;2022-10-23T05:38:45;100762.88;;;11.72;100.00
54369;BME280;40266;52.434;17.056;2022-10-23T05:41:31;100767.62;;;11.71;100.00
54369;BME280;40266;52.434;17.056;2022-10-23T05:44:14;100772.38;;;11.69;100.00
54369;BME280;40266;52.434;17.056;2022-10-23T05:47:15;100769.62;;;11.67;100.00
54369;BME280;40266;52.434;17.056;2022-10-23T05:50:15;100767.01;;;11.67;100.00
54369;BME280;40266;52.434;17.056;2022-10-23T05:53:09;100768.59;;;11.67;100.00
54369;BME280;40266;52.434;17.056;2022-10-23T05:56:06;100771.04;;;11.67;100.00
54369;BME280;40266;52.434;17.056;2022-10-23T05:59:09;100779.80;;;11.67;100.00
54369;BME280;40266;52.434;17.056;2022-10-23T06:02:15;100780.83;;;11.67;100.00
54369;BME280;40266;52.434;17.056;2022-10-23T06:05:04;100780.84;;;11.66;100.00
54369;BME280;40266;52.434;17.056;2022-10-23T06:08:05;100777.88;;;11.66;100.00
54369;BME280;40266;52.434;17.056;2022-10-23T06:10:49;100774.67;;;11.68;100.00
54369;BME280;40266;52.434;17.056;2022-10-23T06:13:33;100777.10;;;11.69;100.00
54369;BME280;40266;52.434;17.056;2022-10-23T06:16:21;100773.58;;;11.71;100.00
54369;BME280;40266;52.434;17.056;2022-10-23T06:19:10;100774.23;;;11.72;100.00
54369;BME280;40266;52.434;17.056;2022-10-23T06:21:54;100778.07;;;11.73;100.00
54369;BME280;40266;52.434;17.056;2022-10-23T06:24:42;100775.23;;;11.75;100.00
54369;BME280;40266;52.434;17.056;2022-10-23T06:27:27;100772.23;;;11.77;100.00
54369;BME280;40266;52.434;17.056;2022-10-23T06:30:11;100773.39;;;11.80;100.00
54369;BME280;40266;52.434;17.056;2022-10-23T06:32:54;100773.81;;;11.84;100.00
54369;BME280;40266;52.434;17.056;2022-10-23T06:35:38;100776.71;;;11.89;100.00
54369;BME280;40266;52.434;17.056;2022-10-23T06:38:20;100775.41;;;11.93;100.00
54369;BME280;40266;52.434;17.056;2022-10-23T06:41:16;100776.34;;;11.99;100.00
54369;BME280;40266;52.434;17.056;2022-10-23T06:44:00;100779.04;;;12.03;100.00
54369;BME280;40266;52.434;17.056;2022-10-23T06:46:56;100778.03;;;12.10;100.00
54369;BME280;40266;52.434;17.056;2022-10-23T06:49:57;100778.25;;;12.15;100.00
54369;BME280;40266;52.434;17.056;2022-10-23T06:52:40;100779.73;;;12.20;100.00
54369;BME280;40266;52.434;17.056;2022-10-23T06:55:30;100783.67;;;12.23;100.00
54369;BME280;40266;52.434;17.056;2022-10-23T06:58:13;100788.15;;;12.27;100.00
54369;BME280;40266;52.434;17.056;2022-10-23T07:01:18;100784.66;;;12.34;100.00
54369;BME280;40266;52.434;17.056;2022-10-23T07:04:01;100787.94;;;12.36;100.00
54369;BME280;40266;52.434;17.056;2022-10-23T07:06:45;100787.73;;;12.38;100.00
54369;BME280;40266;52.434;17.056;2022-10-23T07:09:28;100783.07;;;12.42;100.00
54369;BME280;40266;52.434;17.056;2022-10-23T07:12:13;100783.86;;;12.46;100.00
54369;BME280;40266;52.434;17.056;2022-10-23T07:15:00;100781.14;;;12.50;100.00
54369;BME280;40266;52.434;17.056;2022-10-23T07:17:43;100780.89;;;12.53;100.00
54369;BME280;40266;52.434;17.056;2022-10-23T07:20:26;100781.54;;;12.55;100.00
54369;BME280;40266;52.434;17.056;2022-10-23T07:23:10;100781.73;;;12.55;100.00
54369;BME280;40266;52.434;17.056;2022-10-23T07:25:54;100780.67;;;12.55;100.00
54369;BME280;40266;52.434;17.056;2022-10-23T07:28:37;100784.95;;;12.60;100.00
54369;BME280;40266;52.434;17.056;2022-10-23T07:31:21;100784.86;;;12.63;100.00
54369;BME280;40266;52.434;17.056;2022-10-23T07:34:38;100790.77;;;12.65;100.00
54369;BME280;40266;52.434;17.056;2022-10-23T07:37:38;100784.64;;;12.65;100.00
54369;BME280;40266;52.434;17.056;2022-10-23T07:40:22;100788.95;;;12.68;100.00
54369;BME280;40266;52.434;17.056;2022-10-23T07:43:06;100790.83;;;12.69;100.00
54369;BME280;40266;52.434;17.056;2022-10-23T07:45:49;100795.43;;;12.68;100.00
54369;BME280;40266;52.434;17.056;2022-10-23T07:48:46;100806.80;;;12.69;100.00
54369;BME280;40266;52.434;17.056;2022-10-23T07:51:30;100812.20;;;12.70;100.00
54369;BME280;40266;52.434;17.056;2022-10-23T07:54:14;100817.67;;;12.68;100.00
54369;BME280;40266;52.434;17.056;2022-10-23T07:57:15;100815.44;;;12.66;100.00
54369;BME280;40266;52.434;17.056;2022-10-23T08:00:02;100808.60;;;12.67;100.00
54369;BME280;40266;52.434;17.056;2022-10-23T08:02:54;100809.95;;;12.68;100.00
54369;BME280;40266;52.434;17.056;2022-10-23T08:05:38;100810.08;;;12.71;100.00
54369;BME280;40266;52.434;17.056;2022-10-23T08:08:22;100808.97;;;12.73;100.00
54369;BME280;40266;52.434;17.056;2022-10-23T08:11:06;100809.79;;;12.75;100.00
54369;BME280;40266;52.434;17.056;2022-10-23T08:13:57;100812.33;;;12.79;100.00
54369;BME280;40266;52.434;17.056;2022-10-23T08:16:41;100814.85;;;12.84;100.00
54369;BME280;40266;52.434;17.056;2022-10-23T08:19:44;100817.34;;;12.89;100.00
54369;BME280;40266;52.434;17.056;2022-10-23T08:22:30;100823.49;;;12.96;100.00
54369;BME280;40266;52.434;17.056;2022-10-23T08:25:14;100831.73;;;12.96;100.00
54369;BME280;40266;52.434;17.056;2022-10-23T08:27:57;100830.36;;;12.95;100.00
54369;BME280;40266;52.434;17.056;2022-10-23T08:30:42;100831.60;;;12.94;100.00
54369;BME280;40266;52.434;17.056;2022-10-23T08:33:26;100834.94;;;12.94;100.00
54369;BME280;40266;52.434;17.056;2022-10-23T08:36:27;100839.85;;;12.94;100.00
54369;BME280;40266;52.434;17.056;2022-10-23T08:39:10;100841.35;;;12.96;100.00
54369;BME280;40266;52.434;17.056;2022-10-23T08:41:56;100842.04;;;12.97;100.00
54369;BME280;40266;52.434;17.056;2022-10-23T08:45:06;100841.59;;;13.01;100.00
54369;BME280;40266;52.434;17.056;2022-10-23T08:47:53;100842.50;;;13.07;100.00
54369;BME280;40266;52.434;17.056;2022-10-23T08:51:23;100840.55;;;13.07;100.00
54369;BME280;40266;52.434;17.056;2022-10-23T08:54:13;100842.82;;;13.08;100.00
54369;BME280;40266;52.434;17.056;2022-10-23T08:57:01;100836.74;;;13.05;100.00
54369;BME280;40266;52.434;17.056;2022-10-23T08:59:48;100838.92;;;13.03;100.00
54369;BME280;40266;52.434;17.056;2022-10-23T09:02:41;100842.64;;;13.02;100.00
54369;BME280;40266;52.434;17.056;2022-10-23T09:11:53;100840.23;;;12.99;100.00
54369;BME280;40266;52.434;17.056;2022-10-23T09:17:32;100838.96;;;13.01;100.00
54369;BME280;40266;52.434;17.056;2022-10-23T09:20:22;100837.56;;;13.01;100.00
54369;BME280;40266;52.434;17.056;2022-10-23T09:23:20;100845.79;;;13.01;100.00
54369;BME280;40266;52.434;17.056;2022-10-23T09:26:11;100853.81;;;13.03;100.00
54369;BME280;40266;52.434;17.056;2022-10-23T09:29:04;100854.01;;;13.10;100.00
54369;BME280;40266;52.434;17.056;2022-10-23T09:31:57;100849.40;;;13.12;100.00
54369;BME280;40266;52.434;17.056;2022-10-23T09:34:51;100851.77;;;13.14;100.00
54369;BME280;40266;52.434;17.056;2022-10-23T09:37:44;100851.67;;;13.19;100.00
54369;BME280;40266;52.434;17.056;2022-10-23T09:40:38;100855.10;;;13.21;100.00
54369;BME280;40266;52.434;17.056;2022-10-23T09:43:22;100855.89;;;13.25;100.00
54369;BME280;40266;52.434;17.056;2022-10-23T09:46:08;100863.73;;;13.28;100.00
54369;BME280;40266;52.434;17.056;2022-10-23T09:48:57;100861.17;;;13.32;100.00
54369;BME280;40266;52.434;17.056;2022-10-23T09:52:18;100864.06;;;13.36;100.00
54369;BME280;40266;52.434;17.056;2022-10-23T09:55:19;100864.98;;;13.41;100.00
54369;BME280;40266;52.434;17.056;2022-10-23T09:58:03;100864.79;;;13.42;100.00
54369;BME280;40266;52.434;17.056;2022-10-23T10:00:48;100866.84;;;13.44;100.00
54369;BME280;40266;52.434;17.056;2022-10-23T10:03:50;100868.13;;;13.48;100.00
54369;BME280;40266;52.434;17.056;2022-10-23T10:06:39;100866.97;;;13.52;100.00
54369;BME280;40266;52.434;17.056;2022-10-23T10:09:23;100866.13;;;13.58;100.00
54369;BME280;40266;52.434;17.056;2022-10-23T10:12:30;100858.95;;;13.57;100.00
54369;BME280;40266;52.434;17.056;2022-10-23T10:15:32;100858.21;;;13.52;100.00
54369;BME280;40266;52.434;17.056;2022-10-23T10:21:24;100862.23;;;13.45;100.00
54369;BME280;40266;52.434;17.056;2022-10-23T10:24:24;100860.32;;;13.51;100.00
54369;BME280;40266;52.434;17.056;2022-10-23T10:30:15;100860.80;;;13.53;100.00
54369;BME280;40266;52.434;17.056;2022-10-23T10:39:03;100856.99;;;13.64;100.00
54369;BME280;40266;52.434;17.056;2022-10-23T10:45:17;100853.73;;;13.75;100.00
54369;BME280;40266;52.434;17.056;2022-10-23T10:48:30;100851.39;;;13.77;100.00
54369;BME280;40266;52.434;17.056;2022-10-23T10:51:54;100843.10;;;13.78;100.00
54369;BME280;40266;52.434;17.056;2022-10-23T10:57:32;100838.94;;;13.89;100.00
54369;BME280;40266;52.434;17.056;2022-10-23T11:00:19;100837.23;;;13.87;100.00
54369;BME280;40266;52.434;17.056;2022-10-23T11:05:48;100832.88;;;13.86;100.00
54369;BME280;40266;52.434;17.056;2022-10-23T11:08:37;100832.40;;;13.84;100.00
54369;BME280;40266;52.434;17.056;2022-10-23T11:11:43;100838.48;;;13.86;100.00
54369;BME280;40266;52.434;17.056;2022-10-23T11:14:28;100845.20;;;13.85;100.00
54369;BME280;40266;52.434;17.056;2022-10-23T11:17:36;100847.08;;;13.86;100.00
54369;BME280;40266;52.434;17.056;2022-10-23T11:20:34;100845.25;;;13.89;100.00
54369;BME280;40266;52.434;17.056;2022-10-23T11:23:47;100843.16;;;13.89;100.00
54369;BME280;40266;52.434;17.056;2022-10-23T11:26:56;100842.55;;;13.92;100.00
54369;BME280;40266;52.434;17.056;2022-10-23T11:30:03;100831.14;;;13.92;100.00
54369;BME280;40266;52.434;17.056;2022-10-23T11:36:38;100819.92;;;14.08;100.00
54369;BME280;40266;52.434;17.056;2022-10-23T11:39:06;100810.98;;;14.14;100.00
54369;BME280;40266;52.434;17.056;2022-10-23T11:41:59;100805.24;;;14.18;100.00
54369;BME280;40266;52.434;17.056;2022-10-23T11:44:52;100800.36;;;14.23;100.00
54369;BME280;40266;52.434;17.056;2022-10-23T11:47:37;100800.73;;;14.27;100.00
54369;BME280;40266;52.434;17.056;2022-10-23T11:58:57;100790.44;;;14.54;100.00
54369;BME280;40266;52.434;17.056;2022-10-23T12:01:44;100789.00;;;14.61;100.00
54369;BME280;40266;52.434;17.056;2022-10-23T12:04:45;100785.98;;;14.73;100.00
54369;BME280;40266;52.434;17.056;2022-10-23T12:07:32;100780.84;;;14.79;100.00
54369;BME280;40266;52.434;17.056;2022-10-23T12:10:25;100771.92;;;14.89;100.00
54369;BME280;40266;52.434;17.056;2022-10-23T12:16:20;100760.73;;;15.08;100.00
54369;BME280;40266;52.434;17.056;2022-10-23T12:19:17;100757.79;;;15.16;100.00
54369;BME280;40266;52.434;17.056;2022-10-23T12:22:02;100749.02;;;15.21;100.00
54369;BME280;40266;52.434;17.056;2022-10-23T12:25:06;100758.80;;;15.27;100.00
54369;BME280;40266;52.434;17.056;2022-10-23T12:28:03;100763.24;;;15.36;100.00
54369;BME280;40266;52.434;17.056;2022-10-23T12:33:54;100758.52;;;15.50;100.00
54369;BME280;40266;52.434;17.056;2022-10-23T12:36:55;100759.25;;;15.59;100.00
54369;BME280;40266;52.434;17.056;2022-10-23T12:39:51;100760.77;;;15.65;100.00
54369;BME280;40266;52.434;17.056;2022-10-23T12:42:35;100757.80;;;15.70;100.00
54369;BME280;40266;52.434;17.056;2022-10-23T12:45:31;100753.50;;;15.73;100.00
54369;BME280;40266;52.434;17.056;2022-10-23T12:48:23;100749.95;;;15.73;100.00
54369;BME280;40266;52.434;17.056;2022-10-23T12:51:06;100743.33;;;15.66;100.00
54369;BME280;40266;52.434;17.056;2022-10-23T12:53:49;100736.69;;;15.59;100.00
54369;BME280;40266;52.434;17.056;2022-10-23T12:56:36;100737.13;;;15.62;100.00
54369;BME280;40266;52.434;17.056;2022-10-23T12:59:35;100733.88;;;15.64;100.00
54369;BME280;40266;52.434;17.056;2022-10-23T13:02:25;100741.15;;;15.67;100.00
54369;BME280;40266;52.434;17.056;2022-10-23T13:05:16;100739.81;;;15.71;100.00
54369;BME280;40266;52.434;17.056;2022-10-23T13:08:00;100733.76;;;15.73;100.00
54369;BME280;40266;52.434;17.056;2022-10-23T13:10:57;100732.27;;;15.75;100.00
54369;BME280;40266;52.434;17.056;2022-10-23T13:13:41;100729.30;;;15.74;100.00
54369;BME280;40266;52.434;17.056;2022-10-23T13:16:25;100732.23;;;15.76;100.00
54369;BME280;40266;52.434;17.056;2022-10-23T13:19:21;100727.27;;;15.77;100.00
54369;BME280;40266;52.434;17.056;2022-10-23T13:22:17;100720.23;;;15.81;100.00
54369;BME280;40266;52.434;17.056;2022-10-23T13:25:01;100719.64;;;15.88;100.00
54369;BME280;40266;52.434;17.056;2022-10-23T13:27:44;100712.15;;;15.90;100.00
54369;BME280;40266;52.434;17.056;2022-10-23T13:30:30;100712.25;;;15.92;100.00
54369;BME280;40266;52.434;17.056;2022-10-23T13:33:17;100704.37;;;15.91;100.00
54369;BME280;40266;52.434;17.056;2022-10-23T13:41:43;100698.56;;;15.87;100.00
54369;BME280;40266;52.434;17.056;2022-10-23T13:44:27;100700.08;;;15.83;100.00
54369;BME280;40266;52.434;17.056;2022-10-23T13:47:11;100704.30;;;15.78;100.00
54369;BME280;40266;52.434;17.056;2022-10-23T13:49:54;100712.40;;;15.74;100.00
54369;BME280;40266;52.434;17.056;2022-10-23T13:52:37;100710.51;;;15.68;100.00
54369;BME280;40266;52.434;17.056;2022-10-23T13:55:22;100707.20;;;15.62;100.00
54369;BME280;40266;52.434;17.056;2022-10-23T13:58:06;100701.25;;;15.56;100.00
54369;BME280;40266;52.434;17.056;2022-10-23T14:00:50;100704.77;;;15.52;100.00
54369;BME280;40266;52.434;17.056;2022-10-23T14:03:32;100707.81;;;15.46;100.00
54369;BME280;40266;52.434;17.056;2022-10-23T14:06:16;100699.56;;;15.40;100.00
54369;BME280;40266;52.434;17.056;2022-10-23T14:08:59;100697.56;;;15.37;100.00
54369;BME280;40266;52.434;17.056;2022-10-23T14:11:43;100697.04;;;15.32;100.00
54369;BME280;40266;52.434;17.056;2022-10-23T14:14:26;100695.58;;;15.29;100.00
54369;BME280;40266;52.434;17.056;2022-10-23T14:17:08;100700.04;;;15.27;100.00
54369;BME280;40266;52.434;17.056;2022-10-23T14:19:51;100695.27;;;15.23;100.00
54369;BME280;40266;52.434;17.056;2022-10-23T14:22:34;100691.50;;;15.20;100.00
54369;BME280;40266;52.434;17.056;2022-10-23T14:25:17;100687.54;;;15.17;100.00
54369;BME280;40266;52.434;17.056;2022-10-23T14:28:00;100686.13;;;15.13;100.00
54369;BME280;40266;52.434;17.056;2022-10-23T14:30:43;100684.49;;;15.10;100.00
54369;BME280;40266;52.434;17.056;2022-10-23T14:33:26;100684.63;;;15.06;100.00
54369;BME280;40266;52.434;17.056;2022-10-23T14:36:09;100679.67;;;15.02;100.00
54369;BME280;40266;52.434;17.056;2022-10-23T14:38:56;100677.88;;;14.98;100.00
54369;BME280;40266;52.434;17.056;2022-10-23T14:41:39;100681.02;;;14.93;100.00
54369;BME280;40266;52.434;17.056;2022-10-23T14:44:22;100680.61;;;14.90;100.00
54369;BME280;40266;52.434;17.056;2022-10-23T14:47:05;100678.83;;;14.86;100.00
54369;BME280;40266;52.434;17.056;2022-10-23T14:49:51;100680.02;;;14.82;100.00
54369;BME280;40266;52.434;17.056;2022-10-23T14:52:34;100672.98;;;14.77;100.00
54369;BME280;40266;52.434;17.056;2022-10-23T14:55:17;100671.58;;;14.72;100.00
54369;BME280;40266;52.434;17.056;2022-10-23T14:58:00;100664.18;;;14.67;100.00
54369;BME280;40266;52.434;17.056;2022-10-23T15:00:43;100663.73;;;14.60;100.00
54369;BME280;40266;52.434;17.056;2022-10-23T15:03:27;100659.89;;;14.53;100.00
54369;BME280;40266;52.434;17.056;2022-10-23T15:06:10;100655.41;;;14.45;100.00
54369;BME280;40266;52.434;17.056;2022-10-23T15:09:00;100658.96;;;14.39;100.00
54369;BME280;40266;52.434;17.056;2022-10-23T15:11:43;100651.64;;;14.32;100.00
54369;BME280;40266;52.434;17.056;2022-10-23T15:14:26;100646.10;;;14.24;100.00
54369;BME280;40266;52.434;17.056;2022-10-23T15:17:09;100646.68;;;14.16;100.00
54369;BME280;40266;52.434;17.056;2022-10-23T15:19:57;100650.08;;;14.09;100.00
54369;BME280;40266;52.434;17.056;2022-10-23T15:22:40;100652.23;;;14.03;100.00
54369;BME280;40266;52.434;17.056;2022-10-23T15:25:23;100651.26;;;13.95;100.00
54369;BME280;40266;52.434;17.056;2022-10-23T15:28:05;100654.98;;;13.88;100.00
54369;BME280;40266;52.434;17.056;2022-10-23T15:30:48;100656.63;;;13.81;100.00
54369;BME280;40266;52.434;17.056;2022-10-23T15:33:31;100654.20;;;13.74;100.00
54369;BME280;40266;52.434;17.056;2022-10-23T15:36:14;100652.52;;;13.66;100.00